createdAt,value
2023-05-06T00:01:24.310Z,-11339.66
2023-05-06T00:03:51.528Z,-11339.66
2023-05-06T00:06:18.076Z,-11339.66
2023-05-06T00:08:45.234Z,-11595.00
2023-05-06T00:11:11.964Z,-11595.00
2023-05-06T00:13:38.364Z,-11339.66
2023-05-06T00:16:05.227Z,-11339.66
2023-05-06T00:18:31.784Z,-11339.66
2023-05-06T00:20:58.345Z,-11595.00
2023-05-06T00:23:24.856Z,-11850.38
2023-05-06T00:25:53.820Z,-11850.38
2023-05-06T00:28:20.346Z,-11850.38
2023-05-06T00:30:46.777Z,-11850.38
2023-05-06T00:33:13.230Z,-11850.38
2023-05-06T00:35:39.669Z,-11850.38
2023-05-06T00:38:11.699Z,-11850.38
2023-05-06T00:40:38.799Z,-11850.38
2023-05-06T00:43:06.744Z,-11850.38
2023-05-06T00:45:33.333Z,-12105.69
2023-05-06T00:48:04.268Z,-12105.69
2023-05-06T00:50:32.564Z,-12107.19
2023-05-06T00:52:59.964Z,-12107.19
2023-05-06T00:55:27.393Z,-12107.19
2023-05-06T00:57:54.572Z,-12105.69
2023-05-06T01:00:21.529Z,-12105.69
2023-05-06T01:02:48.806Z,-12105.69
2023-05-06T01:05:18.646Z,-12105.69
2023-05-06T01:08:11.027Z,-12105.69
2023-05-06T01:11:00.781Z,-11850.38
2023-05-06T01:13:52.285Z,-12105.69
2023-05-06T01:16:23.353Z,-11850.38
2023-05-06T01:18:51.741Z,-11850.38
2023-05-06T01:21:19.306Z,-11850.38
2023-05-06T01:23:53.621Z,-11850.38
2023-05-06T01:26:20.061Z,-11595.00
2023-05-06T01:28:46.469Z,-11595.00
2023-05-06T01:31:17.262Z,-11595.00
2023-05-06T01:33:56.027Z,-11595.00
2023-05-06T01:36:46.045Z,-11850.38
2023-05-06T01:39:14.202Z,-11850.38
2023-05-06T01:41:41.909Z,-11850.38
2023-05-06T01:44:08.851Z,-11850.38
2023-05-06T01:46:35.848Z,-11595.00
2023-05-06T01:49:05.832Z,-11595.00
2023-05-06T01:51:33.675Z,-11850.38
2023-05-06T01:54:01.180Z,-11850.38
2023-05-06T01:56:30.124Z,-11850.38
2023-05-06T01:58:59.373Z,-11595.00
2023-05-06T02:01:26.412Z,-11595.00
2023-05-06T02:03:53.096Z,-11595.00
2023-05-06T02:06:19.752Z,-11595.00
2023-05-06T02:08:46.297Z,-11595.00
2023-05-06T02:11:12.745Z,-11850.38
2023-05-06T02:13:39.135Z,-11850.38
2023-05-06T02:16:05.855Z,-11595.00
2023-05-06T02:18:32.410Z,-11850.38
2023-05-06T02:20:58.880Z,-11850.38
2023-05-06T02:23:25.290Z,-11850.38
2023-05-06T02:25:51.831Z,-11850.38
2023-05-06T02:28:18.316Z,-11850.38
2023-05-06T02:30:45.267Z,-11850.38
2023-05-06T02:33:11.699Z,-11850.38
2023-05-06T02:35:38.149Z,-11850.38
2023-05-06T02:38:04.580Z,-11595.00
2023-05-06T02:40:30.976Z,-11595.00
2023-05-06T02:42:57.430Z,-11595.00
2023-05-06T02:45:23.929Z,-11595.00
2023-05-06T02:47:50.396Z,-11339.66
2023-05-06T02:50:16.985Z,-11339.66
2023-05-06T02:52:43.500Z,-11339.66
2023-05-06T02:55:10.230Z,-11339.66
2023-05-06T02:57:36.952Z,-11595.00
2023-05-06T03:00:06.106Z,-11595.00
2023-05-06T03:02:32.560Z,-11850.38
2023-05-06T03:04:58.988Z,-11850.38
2023-05-06T03:07:26.477Z,-11850.38
2023-05-06T03:09:52.809Z,-11850.38
2023-05-06T03:12:19.199Z,-11850.38
2023-05-06T03:14:45.629Z,-11850.38
2023-05-06T03:17:12.103Z,-11850.38
2023-05-06T03:19:38.543Z,-11850.38
2023-05-06T03:22:04.911Z,-11850.38
2023-05-06T03:24:31.292Z,-11850.38
2023-05-06T03:26:58.530Z,-11850.38
2023-05-06T03:29:25.035Z,-12105.69
2023-05-06T03:31:51.575Z,-12105.69
2023-05-06T03:34:18.094Z,-12105.69
2023-05-06T03:36:45.950Z,-12105.69
2023-05-06T03:39:12.564Z,-12105.69
2023-05-06T03:41:39.060Z,-12105.69
2023-05-06T03:44:05.499Z,-12105.69
2023-05-06T03:46:32.792Z,-12105.69
2023-05-06T03:49:00.649Z,-12105.69
2023-05-06T03:51:27.666Z,-12105.69
2023-05-06T03:53:55.116Z,-12105.69
2023-05-06T03:56:23.005Z,-12105.69
2023-05-06T03:58:49.511Z,-12105.69
2023-05-06T04:01:18.233Z,-12105.69
2023-05-06T04:03:45.203Z,-12105.69
2023-05-06T04:06:11.694Z,-12105.69
2023-05-06T04:08:38.471Z,-12105.69
2023-05-06T04:11:06.277Z,-12105.69
2023-05-06T04:13:33.998Z,-12105.69
2023-05-06T04:16:01.287Z,-12105.69
2023-05-06T04:18:28.065Z,-12105.69
2023-05-06T04:20:54.563Z,-12105.69
2023-05-06T04:23:21.581Z,-12105.69
2023-05-06T04:25:51.026Z,-12105.69
2023-05-06T04:28:19.670Z,-12105.69
2023-05-06T04:30:47.112Z,-12105.69
2023-05-06T04:33:15.721Z,-11850.38
2023-05-06T04:35:53.146Z,-11850.38
2023-05-06T04:38:25.736Z,-11850.38
2023-05-06T04:40:52.466Z,-11850.38
2023-05-06T04:43:18.963Z,-11595.00
2023-05-06T04:45:49.352Z,-11595.00
2023-05-06T04:48:19.791Z,-11850.38
2023-05-06T04:50:46.891Z,-11850.38
2023-05-06T04:53:15.230Z,-12105.69
2023-05-06T04:55:43.928Z,-12105.69
2023-05-06T04:58:10.465Z,-12105.69
2023-05-06T05:00:41.200Z,-12107.19
2023-05-06T05:03:07.675Z,-12107.19
2023-05-06T05:05:35.742Z,-12107.19
2023-05-06T05:08:02.246Z,-12107.19
2023-05-06T05:10:28.745Z,-12107.19
2023-05-06T05:12:55.524Z,-12107.19
2023-05-06T05:15:22.083Z,-12107.19
2023-05-06T05:17:49.299Z,-12107.19
2023-05-06T05:20:15.809Z,-12107.19
2023-05-06T05:22:42.305Z,-12107.19
2023-05-06T05:25:09.255Z,-12107.19
2023-05-06T05:27:43.082Z,-12107.19
2023-05-06T05:30:09.940Z,-12107.19
2023-05-06T05:32:38.462Z,-12107.19
2023-05-06T05:35:05.557Z,-12107.19
2023-05-06T05:37:32.566Z,-12107.19
2023-05-06T05:39:59.008Z,-12107.19
2023-05-06T05:42:25.449Z,-12107.19
2023-05-06T05:44:51.904Z,-12107.19
2023-05-06T05:47:18.416Z,-12107.19
2023-05-06T05:49:45.071Z,-12107.19
2023-05-06T05:52:11.847Z,-12107.19
2023-05-06T05:54:38.402Z,-12107.19
2023-05-06T05:57:04.994Z,-12107.19
2023-05-06T05:59:32.761Z,-12107.19
2023-05-06T06:02:00.116Z,-12107.19
2023-05-06T06:04:27.007Z,-12107.19
2023-05-06T06:06:53.893Z,-12107.19
2023-05-06T06:09:20.552Z,-12107.19
2023-05-06T06:11:47.094Z,-12107.19
2023-05-06T06:14:19.416Z,-12107.19
2023-05-06T06:16:47.947Z,-12107.19
2023-05-06T06:19:15.166Z,-12107.19
2023-05-06T06:21:45.805Z,-12107.19
2023-05-06T06:24:13.047Z,-12107.19
2023-05-06T06:26:39.620Z,-12107.19
2023-05-06T06:29:08.072Z,-12107.19
2023-05-06T06:31:34.859Z,-12107.19
2023-05-06T06:34:05.251Z,-12107.19
2023-05-06T06:36:32.306Z,-12107.19
2023-05-06T06:38:59.686Z,-12105.69
2023-05-06T06:41:28.177Z,-12105.69
2023-05-06T06:43:54.620Z,-11850.38
2023-05-06T06:46:21.206Z,-11850.38
2023-05-06T06:48:48.099Z,-11339.66
2023-05-06T06:51:14.570Z,-10318.00
2023-05-06T06:53:41.284Z,-10062.56
2023-05-06T06:56:12.354Z,-9551.59
2023-05-06T06:58:38.779Z,-9551.59
2023-05-06T07:01:05.468Z,-8529.47
2023-05-06T07:03:38.011Z,-8785.03
2023-05-06T07:06:04.398Z,-8273.91
2023-05-06T07:08:30.892Z,-8018.31
2023-05-06T07:10:57.265Z,-8273.91
2023-05-06T07:13:23.782Z,-8273.91
2023-05-06T07:16:15.290Z,-8785.03
2023-05-06T07:18:41.811Z,-9040.56
2023-05-06T07:21:08.247Z,-8018.31
2023-05-06T07:23:35.734Z,-7507.09
2023-05-06T07:26:02.177Z,-7762.72
2023-05-06T07:28:28.661Z,-8018.31
2023-05-06T07:30:55.306Z,-8529.47
2023-05-06T07:33:21.809Z,-8018.31
2023-05-06T07:35:49.383Z,-8018.31
2023-05-06T07:38:15.770Z,-8273.91
2023-05-06T07:40:42.444Z,-8273.91
2023-05-06T07:43:09.901Z,-8273.91
2023-05-06T07:45:37.399Z,-8018.31
2023-05-06T07:48:04.129Z,-7507.09
2023-05-06T07:50:31.612Z,-5461.50
2023-05-06T07:52:58.484Z,-5205.72
2023-05-06T07:55:24.862Z,-3670.69
2023-05-06T07:57:55.689Z,-3926.56
2023-05-06T08:00:23.179Z,-4438.28
2023-05-06T08:02:49.761Z,-3414.81
2023-05-06T08:05:20.406Z,-3158.88
2023-05-06T08:07:47.033Z,-2391.03
2023-05-06T08:10:13.469Z,-3670.69
2023-05-06T08:12:40.054Z,-3158.88
2023-05-06T08:15:07.198Z,-3158.88
2023-05-06T08:17:34.938Z,-3414.81
2023-05-06T08:20:03.523Z,-598.81
2023-05-06T08:22:29.950Z,-854.91
2023-05-06T08:24:57.372Z,-1623.06
2023-05-06T08:27:24.850Z,-86.59
2023-05-06T08:29:51.456Z,-854.91
2023-05-06T08:32:18.546Z,-598.81
2023-05-06T08:34:44.998Z,169.53
2023-05-06T08:37:11.497Z,-342.72
2023-05-06T08:39:43.238Z,-598.81
2023-05-06T08:42:11.678Z,1194.22
2023-05-06T08:44:38.817Z,2219.22
2023-05-06T08:47:05.450Z,2988.13
2023-05-06T08:49:31.979Z,6578.41
2023-05-06T08:52:04.950Z,8631.50
2023-05-06T08:54:35.502Z,10685.69
2023-05-06T08:57:10.313Z,14283.09
2023-05-06T08:59:40.136Z,15825.88
2023-05-06T09:02:08.312Z,17112.00
2023-05-06T09:04:35.182Z,15311.56
2023-05-06T09:07:12.753Z,22260.72
2023-05-06T09:09:39.159Z,16854.75
2023-05-06T09:12:13.740Z,13511.94
2023-05-06T09:14:41.109Z,17883.88
2023-05-06T09:17:26.573Z,19942.97
2023-05-06T09:19:59.110Z,22003.13
2023-05-06T09:22:30.809Z,22003.13
2023-05-06T09:24:58.953Z,19685.50
2023-05-06T09:27:29.164Z,22003.13
2023-05-06T09:30:06.539Z,23291.28
2023-05-06T09:32:34.101Z,25353.22
2023-05-06T09:35:07.017Z,25868.88
2023-05-06T09:37:33.380Z,23291.28
2023-05-06T09:40:01.182Z,21488.00
2023-05-06T09:42:29.576Z,30956.59
2023-05-06T09:45:02.718Z,31602.09
2023-05-06T09:47:35.194Z,33198.16
2023-05-06T09:50:04.229Z,33046.78
2023-05-06T09:52:31.703Z,28940.06
2023-05-06T09:55:00.673Z,26606.25
2023-05-06T09:57:30.863Z,26126.75
2023-05-06T09:59:58.233Z,25594.94
2023-05-06T10:02:26.445Z,24994.72
2023-05-06T10:04:57.408Z,24559.75
2023-05-06T10:07:25.617Z,24898.06
2023-05-06T10:09:54.320Z,24817.50
2023-05-06T10:12:26.728Z,24747.03
2023-05-06T10:14:53.301Z,24620.16
2023-05-06T10:17:24.262Z,24636.25
2023-05-06T10:19:55.328Z,24346.28
2023-05-06T10:22:40.492Z,24056.34
2023-05-06T10:25:22.798Z,24229.50
2023-05-06T10:27:49.826Z,24217.41
2023-05-06T10:30:19.258Z,24374.47
2023-05-06T10:32:46.449Z,23726.16
2023-05-06T10:35:29.976Z,24022.13
2023-05-06T10:37:57.273Z,23834.88
2023-05-06T10:40:24.378Z,23919.44
2023-05-06T10:42:51.487Z,24269.78
2023-05-06T10:45:20.127Z,24724.88
2023-05-06T10:47:55.960Z,24563.78
2023-05-06T10:50:29.410Z,25133.69
2023-05-06T10:53:04.126Z,24712.78
2023-05-06T10:55:35.923Z,25439.84
2023-05-06T10:58:04.143Z,25812.50
2023-05-06T11:00:32.400Z,25945.44
2023-05-06T11:03:02.277Z,26167.03
2023-05-06T11:05:29.156Z,26549.81
2023-05-06T11:08:15.427Z,27414.25
2023-05-06T11:10:42.020Z,27990.66
2023-05-06T11:13:28.513Z,29048.94
2023-05-06T11:15:57.057Z,31126.00
2023-05-06T11:18:30.910Z,32152.88
2023-05-06T11:21:00.288Z,33206.22
2023-05-06T11:23:42.130Z,32917.63
2023-05-06T11:26:09.722Z,32627.03
2023-05-06T11:28:36.341Z,33175.94
2023-05-06T11:31:02.935Z,33434.28
2023-05-06T11:33:33.484Z,35958.00
2023-05-06T11:36:00.800Z,35776.22
2023-05-06T11:38:44.747Z,35392.53
2023-05-06T11:41:11.798Z,35554.09
2023-05-06T11:43:38.520Z,35848.94
2023-05-06T11:46:05.132Z,37933.66
2023-05-06T11:48:32.170Z,37256.81
2023-05-06T11:50:58.577Z,41192.28
2023-05-06T11:53:26.607Z,35879.22
2023-05-06T11:55:55.233Z,38107.44
2023-05-06T11:58:28.138Z,37937.72
2023-05-06T12:00:56.625Z,37816.47
2023-05-06T12:03:24.941Z,38802.63
2023-05-06T12:05:54.370Z,38640.94
2023-05-06T12:08:29.678Z,40844.44
2023-05-06T12:11:00.581Z,42235.91
2023-05-06T12:13:28.273Z,42854.94
2023-05-06T12:16:00.040Z,44243.09
2023-05-06T12:18:27.484Z,43793.81
2023-05-06T12:20:54.898Z,45105.34
2023-05-06T12:23:24.495Z,42397.75
2023-05-06T12:26:06.515Z,43322.31
2023-05-06T12:28:35.410Z,42782.13
2023-05-06T12:31:18.339Z,44471.78
2023-05-06T12:33:47.264Z,47650.72
2023-05-06T12:36:13.743Z,45062.84
2023-05-06T12:38:49.416Z,43518.59
2023-05-06T12:41:16.010Z,52857.97
2023-05-06T12:43:42.425Z,65756.53
2023-05-06T12:46:09.319Z,72153.22
2023-05-06T12:48:38.615Z,65534.72
2023-05-06T12:51:19.112Z,56449.66
2023-05-06T12:53:55.629Z,54375.44
2023-05-06T12:56:22.471Z,65001.66
2023-05-06T12:58:59.437Z,53320.44
2023-05-06T13:01:26.134Z,73775.91
2023-05-06T13:03:53.740Z,75297.28
2023-05-06T13:06:20.517Z,63716.06
2023-05-06T13:08:46.914Z,54917.22
2023-05-06T13:11:13.243Z,51947.38
2023-05-06T13:13:39.825Z,62666.72
2023-05-06T13:16:07.584Z,68920.00
2023-05-06T13:18:34.072Z,78521.41
2023-05-06T13:21:00.771Z,72434.50
2023-05-06T13:23:27.485Z,74662.97
2023-05-06T13:26:05.368Z,82218.03
2023-05-06T13:28:33.476Z,84310.88
2023-05-06T13:31:00.125Z,83264.31
2023-05-06T13:33:26.727Z,83264.31
2023-05-06T13:35:53.223Z,84049.22
2023-05-06T13:38:19.686Z,81433.47
2023-05-06T13:40:48.596Z,84572.56
2023-05-06T13:43:16.144Z,70466.00
2023-05-06T13:45:44.182Z,63990.63
2023-05-06T13:48:12.069Z,69683.75
2023-05-06T13:50:38.636Z,67114.03
2023-05-06T13:53:05.441Z,63382.50
2023-05-06T13:55:32.105Z,66379.25
2023-05-06T13:57:59.843Z,75684.88
2023-05-06T14:00:26.356Z,76990.66
2023-05-06T14:02:52.855Z,77251.84
2023-05-06T14:05:19.394Z,80649.09
2023-05-06T14:07:46.850Z,61093.25
2023-05-06T14:10:14.520Z,67769.53
2023-05-06T14:12:41.915Z,59873.94
2023-05-06T14:15:09.799Z,62601.66
2023-05-06T14:17:36.978Z,62337.34
2023-05-06T14:20:05.392Z,69944.47
2023-05-06T14:22:32.792Z,68641.00
2023-05-06T14:24:59.204Z,70205.22
2023-05-06T14:27:26.626Z,73335.53
2023-05-06T14:29:53.177Z,72813.66
2023-05-06T14:32:19.681Z,67175.09
2023-05-06T14:34:46.154Z,73596.50
2023-05-06T14:37:12.545Z,77774.31
2023-05-06T14:39:39.584Z,69162.34
2023-05-06T14:42:06.111Z,69388.41
2023-05-06T14:44:34.565Z,68897.59
2023-05-06T14:47:00.977Z,71450.13
2023-05-06T14:49:27.554Z,67714.56
2023-05-06T14:51:59.792Z,66658.06
2023-05-06T14:54:26.883Z,64021.13
2023-05-06T14:56:53.319Z,62561.00
2023-05-06T14:59:19.786Z,52170.44
2023-05-06T15:01:46.293Z,54694.00
2023-05-06T15:04:12.704Z,59227.84
2023-05-06T15:06:40.203Z,61064.81
2023-05-06T15:09:07.042Z,62317.00
2023-05-06T15:11:33.465Z,63972.31
2023-05-06T15:14:00.069Z,62792.78
2023-05-06T15:16:26.410Z,61831.13
2023-05-06T15:18:58.999Z,60564.84
2023-05-06T15:21:25.443Z,59695.16
2023-05-06T15:23:56.170Z,60296.59
2023-05-06T15:26:24.103Z,59093.78
2023-05-06T15:28:50.703Z,57022.22
2023-05-06T15:31:17.079Z,53190.63
2023-05-06T15:33:43.697Z,55696.56
2023-05-06T15:36:10.845Z,52878.25
2023-05-06T15:38:59.650Z,45907.06
2023-05-06T15:41:33.964Z,44635.72
2023-05-06T15:44:06.165Z,43130.09
2023-05-06T15:46:33.147Z,43595.50
2023-05-06T15:49:15.497Z,41855.63
2023-05-06T15:51:44.655Z,40476.44
2023-05-06T15:54:18.186Z,39675.84
2023-05-06T15:56:46.001Z,38744.03
2023-05-06T15:59:12.997Z,38495.44
2023-05-06T16:04:09.701Z,36725.50
2023-05-06T16:06:36.417Z,37420.47
2023-05-06T16:09:08.980Z,37456.81
2023-05-06T16:11:35.473Z,36897.22
2023-05-06T16:14:01.899Z,35636.88
2023-05-06T16:16:28.402Z,35509.66
2023-05-06T16:18:54.860Z,35231.00
2023-05-06T16:21:21.309Z,35263.31
2023-05-06T16:23:53.680Z,35146.19
2023-05-06T16:26:20.196Z,35109.84
2023-05-06T16:28:46.655Z,34661.63
2023-05-06T16:31:13.121Z,35075.53
2023-05-06T16:33:39.628Z,34221.50
2023-05-06T16:36:06.421Z,34372.91
2023-05-06T16:38:34.103Z,33831.91
2023-05-06T16:41:00.703Z,33680.53
2023-05-06T16:43:27.696Z,33809.72
2023-05-06T16:45:54.116Z,33680.53
2023-05-06T16:48:20.750Z,32887.38
2023-05-06T16:50:53.246Z,32425.25
2023-05-06T16:53:19.750Z,31642.44
2023-05-06T16:55:53.471Z,31587.97
2023-05-06T16:58:19.834Z,31866.38
2023-05-06T17:00:55.782Z,31479.03
2023-05-06T17:03:22.540Z,31160.31
2023-05-06T17:05:48.961Z,30678.25
2023-05-06T17:08:22.083Z,30282.94
2023-05-06T17:10:59.826Z,30149.84
2023-05-06T17:13:26.433Z,30061.13
2023-05-06T17:16:06.486Z,30232.53
2023-05-06T17:18:32.925Z,29837.28
2023-05-06T17:21:01.828Z,29286.84
2023-05-06T17:23:29.586Z,28798.94
2023-05-06T17:25:57.091Z,28690.09
2023-05-06T17:28:23.511Z,28690.09
2023-05-06T17:30:51.077Z,28246.63
2023-05-06T17:33:17.594Z,28250.66
2023-05-06T17:35:44.621Z,27922.13
2023-05-06T17:38:12.088Z,27819.34
2023-05-06T17:40:38.719Z,27585.56
2023-05-06T17:43:05.219Z,27724.59
2023-05-06T17:45:31.706Z,27877.78
2023-05-06T17:47:58.435Z,27178.47
2023-05-06T17:50:24.905Z,27343.72
2023-05-06T17:52:54.426Z,26904.44
2023-05-06T17:55:26.811Z,27049.50
2023-05-06T17:57:53.476Z,27116.00
2023-05-06T18:00:20.149Z,26930.63
2023-05-06T18:02:47.083Z,26273.81
2023-05-06T18:05:16.579Z,26332.22
2023-05-06T18:07:43.060Z,25876.94
2023-05-06T18:10:10.131Z,26360.44
2023-05-06T18:12:39.885Z,26493.41
2023-05-06T18:15:07.132Z,26396.69
2023-05-06T18:17:34.292Z,26118.69
2023-05-06T18:20:00.816Z,26074.38
2023-05-06T18:22:27.241Z,26110.63
2023-05-06T18:24:55.337Z,26711.00
2023-05-06T18:27:22.671Z,26692.88
2023-05-06T18:29:49.106Z,26553.84
2023-05-06T18:32:15.622Z,26259.72
2023-05-06T18:34:46.147Z,25796.38
2023-05-06T18:37:12.624Z,25188.06
2023-05-06T18:39:42.891Z,25232.38
2023-05-06T18:42:09.826Z,25045.09
2023-05-06T18:44:36.395Z,24932.31
2023-05-06T18:47:02.924Z,24636.25
2023-05-06T18:49:31.442Z,24362.41
2023-05-06T18:51:57.996Z,23214.78
2023-05-06T18:54:26.706Z,20371.41
2023-05-06T18:57:02.256Z,14797.31
2023-05-06T18:59:28.744Z,12483.97
2023-05-06T19:02:07.920Z,11456.28
2023-05-06T19:04:34.414Z,11713.16
2023-05-06T19:07:01.161Z,12227.03
2023-05-06T19:09:28.639Z,12740.94
2023-05-06T19:11:55.743Z,10685.69
2023-05-06T19:14:24.264Z,9658.44
2023-05-06T19:16:51.876Z,7348.19
2023-05-06T19:19:18.671Z,3500.81
2023-05-06T19:21:45.412Z,938.03
2023-05-06T19:24:12.126Z,-1367.03
2023-05-06T19:26:46.095Z,-2902.97
2023-05-06T19:29:12.823Z,-4438.28
2023-05-06T19:31:39.296Z,-6228.72
2023-05-06T19:34:05.872Z,-6995.78
2023-05-06T19:36:32.426Z,-7251.44
2023-05-06T19:38:58.940Z,-7762.72
2023-05-06T19:41:25.636Z,-8273.91
2023-05-06T19:43:52.062Z,-8273.91
2023-05-06T19:46:18.549Z,-8785.03
2023-05-06T19:48:46.275Z,-8529.47
2023-05-06T19:51:12.692Z,-8529.47
2023-05-06T19:53:39.152Z,-8273.91
2023-05-06T19:56:13.412Z,-8018.31
2023-05-06T19:58:40.627Z,-8018.31
2023-05-06T20:01:07.220Z,-8018.31
2023-05-06T20:03:35.776Z,-7762.72
2023-05-06T20:06:03.105Z,-7762.72
2023-05-06T20:08:30.953Z,-9296.09
2023-05-06T20:10:57.361Z,-8785.03
2023-05-06T20:13:23.881Z,-8785.03
2023-05-06T20:15:50.995Z,-9040.56
2023-05-06T20:18:17.499Z,-8785.03
2023-05-06T20:20:44.130Z,-9296.09
2023-05-06T20:23:10.637Z,-9551.59
2023-05-06T20:25:37.241Z,-9296.09
2023-05-06T20:28:05.669Z,-9807.06
2023-05-06T20:30:32.419Z,-9551.59
2023-05-06T20:32:59.249Z,-9807.06
2023-05-06T20:35:26.932Z,-9551.59
2023-05-06T20:37:54.551Z,-9807.06
2023-05-06T20:40:21.360Z,-9807.06
2023-05-06T20:42:48.425Z,-9807.06
2023-05-06T20:45:14.785Z,-10062.56
2023-05-06T20:47:41.487Z,-9551.59
2023-05-06T20:50:08.202Z,-10062.56
2023-05-06T20:52:34.624Z,-10318.00
2023-05-06T20:55:01.716Z,-10318.00
2023-05-06T20:57:28.504Z,-10062.56
2023-05-06T20:59:56.072Z,-10318.00
2023-05-06T21:02:22.647Z,-10318.00
2023-05-06T21:04:49.245Z,-10062.56
2023-05-06T21:07:15.759Z,-10062.56
2023-05-06T21:09:42.317Z,-10318.00
2023-05-06T21:12:08.768Z,-10318.00
2023-05-06T21:14:35.327Z,-10062.56
2023-05-06T21:17:01.805Z,-10062.56
2023-05-06T21:19:28.609Z,-10573.44
2023-05-06T21:21:54.997Z,-11084.25
2023-05-06T21:24:21.427Z,-11084.25
2023-05-06T21:26:47.861Z,-10828.84
2023-05-06T21:29:14.316Z,-11084.25
2023-05-06T21:31:40.860Z,-11595.00
2023-05-06T21:34:08.009Z,-11339.66
2023-05-06T21:36:37.704Z,-11595.00
2023-05-06T21:39:09.789Z,-11339.66
2023-05-06T21:41:36.334Z,-11339.66
2023-05-06T21:44:04.751Z,-11595.00
2023-05-06T21:46:32.391Z,-11339.66
2023-05-06T21:48:59.734Z,-11084.25
2023-05-06T21:51:30.502Z,-11084.25
2023-05-06T21:53:57.008Z,-11084.25
2023-05-06T21:56:24.287Z,-11339.66
2023-05-06T21:58:51.330Z,-11339.66
2023-05-06T22:01:18.144Z,-11595.00
2023-05-06T22:03:46.989Z,-11850.38
2023-05-06T22:06:14.103Z,-11850.38
2023-05-06T22:08:41.114Z,-11850.38
2023-05-06T22:11:07.710Z,-11850.38
2023-05-06T22:13:34.264Z,-11850.38
2023-05-06T22:16:00.890Z,-11850.38
2023-05-06T22:18:29.872Z,-11850.38
2023-05-06T22:20:57.760Z,-12105.69
2023-05-06T22:23:24.884Z,-12105.69
2023-05-06T22:25:52.146Z,-12105.69
2023-05-06T22:28:19.298Z,-12105.69
2023-05-06T22:30:46.041Z,-12105.69
2023-05-06T22:33:12.586Z,-11850.38
2023-05-06T22:35:39.018Z,-11850.38
2023-05-06T22:38:05.647Z,-12105.69
2023-05-06T22:40:32.063Z,-12105.69
2023-05-06T22:42:58.548Z,-12105.69
2023-05-06T22:45:24.952Z,-12105.69
2023-05-06T22:47:51.349Z,-12105.69
2023-05-06T22:50:17.777Z,-12105.69
2023-05-06T22:52:44.242Z,-11850.38
2023-05-06T22:55:11.044Z,-11339.66
2023-05-06T22:57:37.773Z,-11339.66
2023-05-06T23:00:06.706Z,-11595.00
2023-05-06T23:02:33.170Z,-11595.00
2023-05-06T23:04:59.752Z,-11595.00
2023-05-06T23:07:26.191Z,-11595.00
2023-05-06T23:09:52.697Z,-11595.00
2023-05-06T23:12:19.143Z,-11850.38
2023-05-06T23:14:45.676Z,-11850.38
2023-05-06T23:17:12.177Z,-11595.00
2023-05-06T23:19:40.702Z,-11850.38
2023-05-06T23:22:07.169Z,-11850.38
2023-05-06T23:24:33.585Z,-11595.00
2023-05-06T23:27:00.119Z,-11850.38
2023-05-06T23:29:26.610Z,-11850.38
2023-05-06T23:31:53.113Z,-12105.69
2023-05-06T23:34:19.620Z,-12105.69
2023-05-06T23:36:46.011Z,-12105.69
2023-05-06T23:39:12.632Z,-12105.69
2023-05-06T23:41:39.029Z,-12105.69
2023-05-06T23:44:06.071Z,-12105.69
2023-05-06T23:46:32.675Z,-12105.69
2023-05-06T23:48:59.167Z,-11850.38
2023-05-06T23:51:26.510Z,-11850.38
2023-05-06T23:53:53.080Z,-11595.00
2023-05-06T23:56:20.539Z,-11850.38
2023-05-06T23:58:47.060Z,-11850.38
